Aérodrome :
LOGIN :

S'inscrire | Disclaimer

   EN    FR    IT 

 










Légende :    VFR   VFR Marginal   IFR   IFR Intensif   IFR Très Intensif
Visi : 
Plafond : 
>= 8 km
>= 3000ft
5 à 8 km
1000 à 3000 ft
1500m à 5 km
500 à 1000 ft
800 à 1500m
200 à 500 ft
< 800m
< 200 ft
Symboles :   Orages  Brouillard  Fortes neiges  Fortes précipitations  Vent > 20 kt
SIGMETs :   Divers  Orages  Givrage  Turbulence  Onde Orograph.  Cendres Volcan.






- Altitude de l'aérodrome : 764 ft
- Code IATA : YEI


LTBR - Yenisehir AB

DERNIER METAR :
  • 280920Z 09007KT 060V120 CAVOK 12/04 Q1013 NOSIG RMK RWY07 09006KT 040V140

METARs EXPIRÉS :
  • 280850Z 36003KT 290V050 CAVOK 10/05 Q1013 NOSIG RMK RWY07 VRB02KT
  • 280820Z VRB02KT CAVOK 09/05 Q1014 NOSIG RMK RWY07 VRB01KT
  • 280750Z VRB03KT CAVOK 08/05 Q1014 NOSIG RMK RWY07 VRB02KT
  • 280720Z 24001KT 9000 FEW040 07/05 Q1014 NOSIG RMK RWY07 VRB02KT
  • 280650Z 02003KT 330V090 9000 FEW040 06/05 Q1014 NOSIG RMK RWY07 VRB02KT

TAF TAF LTBR
Valide du 28 à 06h jusqu'au 29 à 06h UTC


280440Z 2806/2906 VRB02KT 9999 SCT035
BECMG 2807/2810 CAVOK
BECMG 2818/2822 SCT035 BKN100
BECMG 2822/2901 -SHRA
PROB30
TEMPO 2904/2906 29012KT -SHRASN BKN025 BKN080



MET'MAP, la Météo Aéronautique d'un coup d'oeil ! - Copyright ORBIFLY Décembre 2007 - Disclaimer

ORBIFLY MET'MAP TEAM :

Programmation & Développement : Alexandra Zaïnal
Sur une idée originale de : Baudouin d'Aumeries
Assistance à la programmation : Marc-Olivier Méhu
Soutien technique & logistique : Manuel Goepfert

Contact : metmap@orbifly.com




SOURCES & CREDITS :

   NOAA